createdAt,value
2019-05-16T00:00:11.110Z,100.00
2019-05-16T00:02:39.599Z,100.00
2019-05-16T00:05:08.817Z,100.00
2019-05-16T00:07:38.976Z,100.00
2019-05-16T00:10:08.683Z,100.00
2019-05-16T00:12:39.715Z,100.00
2019-05-16T00:15:09.166Z,100.00
2019-05-16T00:17:38.598Z,100.00
2019-05-16T00:20:09.373Z,100.00
2019-05-16T00:22:39.353Z,100.00
2019-05-16T00:25:08.767Z,100.00
2019-05-16T00:27:38.699Z,100.00
2019-05-16T00:30:08.908Z,100.00
2019-05-16T00:32:38.984Z,100.00
2019-05-16T00:35:09.226Z,100.00
2019-05-16T00:37:39.045Z,100.00
2019-05-16T00:40:09.078Z,100.00
2019-05-16T00:42:39.016Z,100.00
2019-05-16T00:45:09.121Z,100.00
2019-05-16T00:47:38.944Z,100.00
2019-05-16T00:50:08.754Z,100.00
2019-05-16T00:52:39.449Z,100.00
2019-05-16T00:55:08.924Z,100.00
2019-05-16T00:57:38.926Z,100.00
2019-05-16T01:00:09.269Z,100.00
2019-05-16T01:02:38.290Z,100.00
2019-05-16T01:05:08.540Z,100.00
2019-05-16T01:07:39.194Z,100.00
2019-05-16T01:10:09.017Z,100.00
2019-05-16T01:12:39.088Z,100.00
2019-05-16T01:15:08.199Z,100.00
2019-05-16T01:17:38.827Z,100.00
2019-05-16T01:20:08.520Z,100.00
2019-05-16T01:22:38.457Z,100.00
2019-05-16T01:25:09.465Z,100.00
2019-05-16T01:27:38.761Z,100.00
2019-05-16T01:30:09.120Z,100.00
2019-05-16T01:32:39.104Z,100.00
2019-05-16T01:35:08.501Z,100.00
2019-05-16T01:37:38.388Z,100.00
2019-05-16T01:40:08.359Z,100.00
2019-05-16T01:42:38.574Z,100.00
2019-05-16T01:45:08.636Z,100.00
2019-05-16T01:47:39.295Z,100.00
2019-05-16T01:50:08.828Z,100.00
2019-05-16T01:52:38.361Z,100.00
2019-05-16T01:55:08.305Z,100.00
2019-05-16T01:57:39.180Z,100.00
2019-05-16T02:00:08.440Z,100.00
2019-05-16T02:02:38.567Z,100.00
2019-05-16T02:05:08.305Z,100.00
2019-05-16T02:07:38.796Z,100.00
2019-05-16T02:10:08.601Z,100.00
2019-05-16T02:12:38.481Z,100.00
2019-05-16T02:15:08.184Z,100.00
2019-05-16T02:17:38.367Z,100.00
2019-05-16T02:20:08.849Z,100.00
2019-05-16T02:22:38.904Z,100.00
2019-05-16T02:25:08.150Z,100.00
2019-05-16T02:27:40.664Z,100.00
2019-05-16T02:30:11.978Z,100.00
2019-05-16T02:32:41.357Z,100.00
2019-05-16T02:35:11.889Z,100.00
2019-05-16T02:37:42.303Z,100.00
2019-05-16T02:40:11.936Z,100.00
2019-05-16T02:42:42.075Z,100.00
2019-05-16T02:45:11.257Z,100.00
2019-05-16T02:47:42.702Z,100.00
2019-05-16T02:50:12.155Z,100.00
2019-05-16T02:52:41.301Z,100.00
2019-05-16T02:55:11.584Z,100.00
2019-05-16T02:57:41.596Z,100.00
2019-05-16T03:00:12.471Z,100.00
2019-05-16T03:02:42.187Z,100.00
2019-05-16T03:05:12.247Z,100.00
2019-05-16T03:07:47.029Z,100.00
2019-05-16T03:10:14.242Z,100.00
2019-05-16T03:12:43.845Z,100.00
2019-05-16T03:15:12.493Z,100.00
2019-05-16T03:17:44.385Z,100.00
2019-05-16T03:20:13.575Z,100.00
2019-05-16T03:22:42.844Z,100.00
2019-05-16T03:25:11.992Z,100.00
2019-05-16T03:27:41.512Z,100.00
2019-05-16T03:30:15.490Z,100.00
2019-05-16T03:32:45.202Z,100.00
2019-05-16T03:35:15.407Z,100.00
2019-05-16T03:37:54.586Z,100.00
2019-05-16T03:40:14.220Z,100.00
2019-05-16T03:42:42.711Z,100.00
2019-05-16T03:45:11.312Z,100.00
2019-05-16T03:47:42.809Z,100.00
2019-05-16T03:50:11.100Z,100.00
2019-05-16T03:52:43.321Z,100.00
2019-05-16T03:55:11.075Z,100.00
2019-05-16T03:57:41.667Z,100.00
2019-05-16T04:00:11.876Z,100.00
2019-05-16T04:02:41.918Z,100.00
2019-05-16T04:05:11.676Z,100.00
2019-05-16T04:07:41.642Z,100.00
2019-05-16T04:10:11.141Z,100.00
2019-05-16T04:12:42.054Z,100.00
2019-05-16T04:15:11.640Z,100.00
2019-05-16T04:17:41.346Z,100.00
2019-05-16T04:20:11.540Z,100.00
2019-05-16T04:22:41.001Z,100.00
2019-05-16T04:25:11.339Z,100.00
2019-05-16T04:27:41.590Z,100.00
2019-05-16T04:30:11.711Z,100.00
2019-05-16T04:32:42.084Z,100.00
2019-05-16T04:35:11.407Z,100.00
2019-05-16T04:37:42.335Z,100.00
2019-05-16T04:40:12.330Z,100.00
2019-05-16T04:42:41.977Z,100.00
2019-05-16T04:45:12.358Z,100.00
2019-05-16T04:47:41.485Z,100.00
2019-05-16T04:50:11.527Z,100.00
2019-05-16T04:52:41.950Z,100.00
2019-05-16T04:55:12.178Z,100.00
2019-05-16T04:57:42.251Z,100.00
2019-05-16T05:00:11.667Z,100.00
2019-05-16T05:02:41.705Z,100.00
2019-05-16T05:05:12.489Z,100.00
2019-05-16T05:07:41.028Z,100.00
2019-05-16T05:10:11.315Z,100.00
2019-05-16T05:12:40.959Z,100.00
2019-05-16T05:15:11.778Z,100.00
2019-05-16T05:17:41.243Z,100.00
2019-05-16T05:20:10.758Z,100.00
2019-05-16T05:22:39.914Z,100.00
2019-05-16T05:25:10.829Z,100.00
2019-05-16T05:27:41.170Z,100.00
2019-05-16T05:30:10.505Z,100.00
2019-05-16T05:32:41.252Z,100.00
2019-05-16T05:35:10.530Z,100.00
2019-05-16T05:37:40.993Z,100.00
2019-05-16T05:40:10.590Z,100.00
2019-05-16T05:42:40.022Z,100.00
2019-05-16T05:45:11.111Z,100.00
2019-05-16T05:47:40.447Z,100.00
2019-05-16T05:50:11.261Z,100.00
2019-05-16T05:52:41.184Z,100.00
2019-05-16T05:55:10.695Z,100.00
2019-05-16T05:57:40.294Z,100.00
2019-05-16T06:00:09.982Z,100.00
2019-05-16T06:02:40.253Z,100.00
2019-05-16T06:05:10.672Z,100.00
2019-05-16T06:07:40.466Z,100.00
2019-05-16T06:10:10.608Z,100.00
2019-05-16T06:12:40.840Z,100.00
2019-05-16T06:15:12.632Z,100.00
2019-05-16T06:17:40.292Z,100.00
2019-05-16T06:20:14.283Z,100.00
2019-05-16T06:22:40.320Z,100.00
2019-05-16T06:25:13.450Z,100.00
2019-05-16T06:27:40.713Z,100.00
2019-05-16T06:30:11.413Z,100.00
2019-05-16T06:32:39.911Z,100.00
2019-05-16T06:35:09.801Z,100.00
2019-05-16T06:37:40.615Z,100.00
2019-05-16T06:40:10.745Z,100.00
2019-05-16T06:42:40.285Z,100.00
2019-05-16T06:45:10.333Z,100.00
2019-05-16T06:47:39.673Z,100.00
2019-05-16T06:50:11.050Z,100.00
2019-05-16T06:52:40.906Z,100.00
2019-05-16T06:55:10.151Z,100.00
2019-05-16T06:57:40.885Z,100.00
2019-05-16T07:00:10.922Z,100.00
2019-05-16T07:02:40.922Z,100.00
2019-05-16T07:05:10.146Z,100.00
2019-05-16T07:07:40.487Z,100.00
2019-05-16T07:10:09.920Z,98.63
2019-05-16T07:12:41.108Z,99.05
2019-05-16T07:15:12.259Z,99.87
2019-05-16T07:17:39.909Z,100.00
2019-05-16T07:20:10.471Z,100.00
2019-05-16T07:22:40.595Z,98.44
2019-05-16T07:25:10.661Z,98.43
2019-05-16T07:27:40.119Z,98.17
2019-05-16T07:30:10.747Z,99.59
2019-05-16T07:32:40.488Z,100.00
2019-05-16T07:35:09.877Z,100.00
2019-05-16T07:37:40.006Z,100.00
2019-05-16T07:40:19.303Z,100.00
2019-05-16T07:42:40.314Z,99.89
2019-05-16T07:45:10.774Z,100.00
2019-05-16T07:47:40.187Z,99.19
2019-05-16T07:50:10.384Z,99.24
2019-05-16T07:52:40.234Z,98.17
2019-05-16T07:55:10.777Z,99.18
2019-05-16T07:57:40.034Z,96.53
2019-05-16T08:00:09.852Z,96.10
2019-05-16T08:02:40.279Z,95.44
2019-05-16T08:05:10.249Z,96.32
2019-05-16T08:07:40.672Z,98.22
2019-05-16T08:10:10.744Z,97.29
2019-05-16T08:15:10.460Z,99.51
2019-05-16T08:17:41.528Z,99.46
2019-05-16T08:20:10.958Z,98.98
2019-05-16T08:22:41.612Z,98.42
2019-05-16T08:25:10.734Z,100.00
2019-05-16T08:27:41.377Z,99.89
2019-05-16T08:30:11.218Z,98.16
2019-05-16T08:32:42.064Z,95.91
2019-05-16T08:35:11.261Z,95.00
2019-05-16T08:37:46.013Z,94.24
2019-05-16T08:40:11.656Z,95.02
2019-05-16T08:42:41.590Z,96.34
2019-05-16T08:45:13.103Z,97.31
2019-05-16T08:47:42.545Z,91.74
2019-05-16T08:50:05.718Z,98.98
2019-05-16T08:50:14.223Z,92.38
2019-05-16T08:52:43.411Z,91.18
2019-05-16T08:55:13.351Z,88.94
2019-05-16T08:57:42.043Z,88.71
2019-05-16T09:00:14.772Z,89.87
2019-05-16T09:02:42.341Z,91.73
2019-05-16T09:05:13.661Z,88.10
2019-05-16T09:07:41.380Z,87.69
2019-05-16T09:10:42.387Z,87.82
2019-05-16T09:12:40.334Z,87.12
2019-05-16T09:15:09.055Z,85.45
2019-05-16T09:17:38.537Z,84.79
2019-05-16T09:20:07.828Z,81.55
2019-05-16T09:22:37.769Z,81.78
2019-05-16T09:25:08.031Z,83.60
2019-05-16T09:27:38.049Z,81.53
2019-05-16T09:30:07.918Z,84.68
2019-05-16T09:32:37.069Z,86.67
2019-05-16T09:35:09.392Z,86.90
2019-05-16T09:37:37.971Z,86.20
2019-05-16T09:40:08.351Z,87.30
2019-05-16T09:42:37.328Z,88.97
2019-05-16T09:45:07.724Z,86.34
2019-05-16T09:47:38.883Z,85.79
2019-05-16T09:50:08.585Z,84.44
2019-05-16T09:52:37.085Z,87.59
2019-05-16T09:55:07.092Z,83.45
2019-05-16T09:57:37.571Z,85.62
2019-05-16T10:00:09.140Z,86.74
2019-05-16T10:02:37.715Z,86.07
2019-05-16T10:05:13.444Z,85.25
2019-05-16T10:07:38.844Z,82.54
2019-05-16T10:10:09.711Z,83.07
2019-05-16T10:12:38.230Z,80.81
2019-05-16T10:15:08.441Z,81.18
2019-05-16T10:17:37.276Z,79.51
2019-05-16T10:20:08.132Z,77.24
2019-05-16T10:22:37.359Z,76.15
2019-05-16T10:25:07.181Z,74.72
2019-05-16T10:27:36.886Z,74.94
2019-05-16T10:30:09.001Z,75.06
2019-05-16T10:32:39.792Z,72.52
2019-05-16T10:35:08.606Z,74.97
2019-05-16T10:37:37.606Z,75.18
2019-05-16T10:40:07.445Z,76.15
2019-05-16T10:42:37.919Z,76.31
2019-05-16T10:45:08.642Z,76.52
2019-05-16T10:47:37.456Z,77.15
2019-05-16T10:50:09.175Z,77.11
2019-05-16T10:52:37.667Z,80.84
2019-05-16T10:55:08.195Z,78.80
2019-05-16T10:57:37.784Z,78.93
2019-05-16T11:00:18.108Z,75.92
2019-05-16T11:02:38.093Z,73.40
2019-05-16T11:05:22.705Z,74.23
2019-05-16T11:07:37.310Z,74.76
2019-05-16T11:10:07.439Z,73.92
2019-05-16T11:12:47.566Z,72.69
2019-05-16T11:15:11.558Z,74.79
2019-05-16T11:17:38.624Z,75.40
2019-05-16T11:20:07.806Z,73.50
2019-05-16T11:22:37.144Z,71.73
2019-05-16T11:25:20.843Z,69.52
2019-05-16T11:27:37.657Z,69.34
2019-05-16T11:30:07.765Z,68.29
2019-05-16T11:32:37.474Z,71.70
2019-05-16T11:35:08.071Z,72.04
2019-05-16T11:37:37.473Z,73.85
2019-05-16T11:40:08.567Z,75.15
2019-05-16T11:42:38.036Z,72.93
2019-05-16T11:45:10.365Z,74.74
2019-05-16T11:47:39.197Z,72.50
2019-05-16T11:50:08.931Z,73.36
2019-05-16T11:52:40.438Z,73.13
2019-05-16T11:55:08.331Z,72.99
2019-05-16T11:57:38.012Z,76.39
2019-05-16T12:00:09.989Z,76.44
2019-05-16T12:02:42.365Z,75.82
2019-05-16T12:05:09.032Z,78.25
2019-05-16T12:07:44.088Z,81.05
2019-05-16T12:10:08.753Z,77.72
2019-05-16T12:12:37.232Z,76.84
2019-05-16T12:15:08.590Z,78.49
2019-05-16T12:17:37.118Z,77.28
2019-05-16T12:20:09.128Z,77.15
2019-05-16T12:22:37.835Z,77.00
2019-05-16T12:25:08.140Z,78.11
2019-05-16T12:27:42.227Z,77.88
2019-05-16T12:30:13.520Z,78.39
2019-05-16T12:32:39.045Z,78.83
2019-05-16T12:35:08.683Z,76.90
2019-05-16T12:37:37.573Z,76.99
2019-05-16T12:40:07.697Z,77.86
2019-05-16T12:42:36.604Z,77.57
2019-05-16T12:45:08.871Z,75.48
2019-05-16T12:47:37.754Z,74.26
2019-05-16T12:50:12.302Z,74.53
2019-05-16T12:52:41.020Z,76.73
2019-05-16T12:55:10.172Z,76.59
2019-05-16T12:57:38.812Z,77.08
2019-05-16T13:00:14.935Z,74.52
2019-05-16T13:02:40.747Z,73.23
2019-05-16T13:05:10.221Z,73.12
2019-05-16T13:07:38.702Z,74.66
2019-05-16T13:10:08.141Z,74.90
2019-05-16T13:12:37.879Z,72.23
2019-05-16T13:15:08.151Z,73.00
2019-05-16T13:17:37.441Z,71.06
2019-05-16T13:20:07.840Z,73.30
2019-05-16T13:22:38.404Z,73.22
2019-05-16T13:25:08.343Z,74.73
2019-05-16T13:27:37.504Z,72.30
2019-05-16T13:30:10.467Z,72.99
2019-05-16T13:32:39.049Z,70.53
2019-05-16T13:35:07.986Z,72.17
2019-05-16T13:37:36.461Z,69.69
2019-05-16T13:40:07.938Z,72.74
2019-05-16T13:42:37.035Z,71.87
2019-05-16T13:45:07.543Z,71.63
2019-05-16T13:47:37.720Z,71.32
2019-05-16T13:50:12.299Z,71.31
2019-05-16T13:52:38.457Z,70.69
2019-05-16T13:55:08.890Z,72.11
2019-05-16T13:57:37.720Z,72.18
2019-05-16T14:00:08.536Z,75.25
2019-05-16T14:02:37.927Z,75.43
2019-05-16T14:05:07.798Z,76.66
2019-05-16T14:07:37.413Z,75.34
2019-05-16T14:10:07.845Z,75.03
2019-05-16T14:12:36.823Z,73.51
2019-05-16T14:15:08.159Z,75.18
2019-05-16T14:17:37.347Z,72.78
2019-05-16T14:20:14.585Z,68.40
2019-05-16T14:22:37.989Z,62.86
2019-05-16T14:25:08.190Z,65.11
2019-05-16T14:27:38.190Z,63.01
2019-05-16T14:30:09.504Z,60.73
2019-05-16T14:32:41.512Z,66.83
2019-05-16T14:35:09.125Z,68.41
2019-05-16T14:37:38.311Z,66.39
2019-05-16T14:40:07.427Z,65.47
2019-05-16T14:42:38.809Z,64.67
2019-05-16T14:45:18.027Z,65.83
2019-05-16T14:47:47.698Z,60.67
2019-05-16T14:50:16.978Z,58.13
2019-05-16T14:52:47.339Z,57.43
2019-05-16T14:55:18.546Z,60.31
2019-05-16T14:57:47.323Z,60.23
2019-05-16T15:00:18.358Z,60.99
2019-05-16T15:02:48.044Z,67.61
2019-05-16T15:05:17.024Z,71.23
2019-05-16T15:07:48.081Z,72.31
2019-05-16T15:10:16.535Z,72.09
2019-05-16T15:12:46.750Z,72.31
2019-05-16T15:15:23.292Z,71.66
2019-05-16T15:17:47.545Z,68.37
2019-05-16T15:20:18.289Z,68.11
2019-05-16T15:22:47.253Z,68.79
2019-05-16T15:25:17.514Z,67.68
2019-05-16T15:27:47.803Z,65.84
2019-05-16T15:30:18.338Z,66.53
2019-05-16T15:32:48.106Z,72.83
2019-05-16T15:35:18.249Z,71.80
2019-05-16T15:37:48.234Z,74.96
2019-05-16T15:40:17.867Z,74.53
2019-05-16T15:42:46.567Z,77.46
2019-05-16T15:45:17.868Z,77.80
2019-05-16T15:47:46.092Z,79.33
2019-05-16T15:50:17.855Z,77.66
2019-05-16T15:52:45.571Z,78.66
2019-05-16T15:55:14.390Z,78.29
2019-05-16T15:57:42.900Z,78.37
2019-05-16T16:00:12.109Z,78.52
2019-05-16T16:02:40.620Z,75.85
2019-05-16T16:05:09.834Z,77.43
2019-05-16T16:07:38.904Z,75.64
2019-05-16T16:10:08.052Z,77.89
2019-05-16T16:12:37.660Z,79.75
2019-05-16T16:15:07.707Z,78.54
2019-05-16T16:17:38.019Z,79.98
2019-05-16T16:20:10.449Z,79.20
2019-05-16T16:22:38.571Z,79.33
2019-05-16T16:25:07.490Z,78.75
2019-05-16T16:27:36.086Z,79.04
2019-05-16T16:30:07.134Z,78.93
2019-05-16T16:32:38.063Z,80.17
2019-05-16T16:35:07.954Z,81.46
2019-05-16T16:37:37.892Z,81.33
2019-05-16T16:40:11.377Z,82.06
2019-05-16T16:42:37.678Z,81.54
2019-05-16T16:45:07.469Z,80.79
2019-05-16T16:47:37.666Z,81.45
2019-05-16T16:50:08.111Z,82.02
2019-05-16T16:52:37.869Z,81.67
2019-05-16T16:55:07.943Z,81.30
2019-05-16T16:57:38.335Z,81.26
2019-05-16T17:00:11.371Z,80.71
2019-05-16T17:02:39.879Z,80.87
2019-05-16T17:05:12.622Z,81.71
2019-05-16T17:07:39.128Z,82.71
2019-05-16T17:10:08.045Z,80.27
2019-05-16T17:12:41.408Z,79.78
2019-05-16T17:15:09.319Z,79.22
2019-05-16T17:17:37.987Z,80.22
2019-05-16T17:20:08.051Z,82.78
2019-05-16T17:22:37.669Z,80.19
2019-05-16T17:25:09.445Z,80.15
2019-05-16T17:27:38.022Z,80.99
2019-05-16T17:30:16.956Z,82.32
2019-05-16T17:32:45.186Z,83.37
2019-05-16T17:35:18.365Z,84.40
2019-05-16T17:37:46.691Z,85.81
2019-05-16T17:40:17.676Z,85.46
2019-05-16T17:42:47.663Z,85.62
2019-05-16T17:45:18.219Z,85.83
2019-05-16T17:47:46.982Z,85.97
2019-05-16T17:50:17.179Z,85.10
2019-05-16T17:52:47.744Z,85.01
2019-05-16T17:55:17.205Z,85.22
2019-05-16T17:57:46.260Z,85.06
2019-05-16T18:00:25.201Z,86.89
2019-05-16T18:02:47.105Z,86.46
2019-05-16T18:05:16.986Z,87.05
2019-05-16T18:07:47.545Z,87.33
2019-05-16T18:10:18.142Z,87.69
2019-05-16T18:12:48.027Z,88.42
2019-05-16T18:15:19.748Z,89.47
2019-05-16T18:17:48.242Z,88.29
2019-05-16T18:20:17.163Z,89.36
2019-05-16T18:22:47.171Z,90.17
2019-05-16T18:25:16.408Z,90.64
2019-05-16T18:27:44.972Z,89.34
2019-05-16T18:30:16.791Z,89.68
2019-05-16T18:32:45.365Z,91.20
2019-05-16T18:35:16.574Z,92.35
2019-05-16T18:37:46.483Z,92.13
2019-05-16T18:40:16.537Z,93.59
2019-05-16T18:42:47.568Z,94.35
2019-05-16T18:45:16.525Z,94.35
2019-05-16T18:47:47.008Z,94.30
2019-05-16T18:50:18.158Z,95.65
2019-05-16T18:52:47.162Z,96.42
2019-05-16T18:55:16.893Z,96.15
2019-05-16T18:57:47.298Z,96.41
2019-05-16T19:00:17.890Z,96.69
2019-05-16T19:02:47.879Z,96.68
2019-05-16T19:05:17.277Z,96.71
2019-05-16T19:07:47.545Z,97.68
2019-05-16T19:10:17.777Z,98.21
2019-05-16T19:12:47.757Z,98.41
2019-05-16T19:15:17.835Z,98.49
2019-05-16T19:17:46.502Z,98.38
2019-05-16T19:20:17.270Z,98.46
2019-05-16T19:22:45.813Z,98.68
2019-05-16T19:25:14.656Z,99.11
2019-05-16T19:27:43.407Z,99.49
2019-05-16T19:30:12.851Z,99.97
2019-05-16T19:32:41.409Z,99.40
2019-05-16T19:35:11.161Z,99.74
2019-05-16T19:37:40.718Z,100.00
2019-05-16T19:40:09.861Z,100.00
2019-05-16T19:42:38.343Z,100.00
2019-05-16T19:45:10.404Z,100.00
2019-05-16T19:47:41.270Z,100.00
2019-05-16T19:50:09.897Z,100.00
2019-05-16T19:52:38.374Z,100.00
2019-05-16T19:55:08.325Z,100.00
2019-05-16T19:57:37.374Z,100.00
2019-05-16T20:00:08.565Z,100.00
2019-05-16T20:02:37.222Z,100.00
2019-05-16T20:05:10.480Z,100.00
2019-05-16T20:07:39.031Z,100.00
2019-05-16T20:10:09.699Z,100.00
2019-05-16T20:12:38.380Z,100.00
2019-05-16T20:15:11.630Z,100.00
2019-05-16T20:17:50.966Z,100.00
2019-05-16T20:20:09.473Z,100.00
2019-05-16T20:22:38.212Z,100.00
2019-05-16T20:25:06.948Z,100.00
2019-05-16T20:27:36.800Z,100.00
2019-05-16T20:30:09.722Z,100.00
2019-05-16T20:32:38.196Z,100.00
2019-05-16T20:35:08.878Z,100.00
2019-05-16T20:37:37.604Z,100.00
2019-05-16T20:40:09.290Z,100.00
2019-05-16T20:42:36.962Z,100.00
2019-05-16T20:45:08.106Z,100.00
2019-05-16T20:47:36.755Z,100.00
2019-05-16T20:50:09.010Z,100.00
2019-05-16T20:52:37.957Z,100.00
2019-05-16T20:55:07.489Z,100.00
2019-05-16T20:57:37.691Z,100.00
2019-05-16T21:00:09.857Z,100.00
2019-05-16T21:02:38.411Z,100.00
2019-05-16T21:05:07.455Z,100.00
2019-05-16T21:07:37.495Z,100.00
2019-05-16T21:10:08.353Z,100.00
2019-05-16T21:12:40.107Z,100.00
2019-05-16T21:15:07.997Z,100.00
2019-05-16T21:17:36.547Z,100.00
2019-05-16T21:20:07.344Z,100.00
2019-05-16T21:22:37.050Z,100.00
2019-05-16T21:25:06.593Z,100.00
2019-05-16T21:27:37.560Z,100.00
2019-05-16T21:30:07.731Z,100.00
2019-05-16T21:32:36.750Z,100.00
2019-05-16T21:35:08.736Z,100.00
2019-05-16T21:37:37.594Z,100.00
2019-05-16T21:40:08.186Z,100.00
2019-05-16T21:42:36.781Z,100.00
2019-05-16T21:45:07.600Z,100.00
2019-05-16T21:47:36.995Z,100.00
2019-05-16T21:50:08.313Z,100.00
2019-05-16T21:52:36.858Z,100.00
2019-05-16T21:55:09.456Z,100.00
2019-05-16T21:57:38.091Z,100.00
2019-05-16T22:00:32.016Z,100.00
2019-05-16T22:03:00.506Z,100.00
2019-05-16T22:05:29.147Z,100.00
2019-05-16T22:07:57.637Z,100.00
2019-05-16T22:10:26.733Z,100.00
2019-05-16T22:12:57.115Z,100.00
2019-05-16T22:15:25.659Z,100.00
2019-05-16T22:17:56.488Z,100.00
2019-05-16T22:20:26.978Z,100.00
2019-05-16T22:22:57.246Z,100.00
2019-05-16T22:25:27.131Z,100.00
2019-05-16T22:27:57.560Z,100.00
2019-05-16T22:30:27.259Z,100.00
2019-05-16T22:32:55.916Z,100.00
2019-05-16T22:35:24.497Z,100.00
2019-05-16T22:37:58.595Z,100.00
2019-05-16T22:40:23.233Z,100.00
2019-05-16T22:42:51.721Z,100.00
2019-05-16T22:45:21.940Z,100.00
2019-05-16T22:47:50.429Z,100.00
2019-05-16T22:50:19.176Z,100.00
2019-05-16T22:52:47.669Z,100.00
2019-05-16T22:55:17.890Z,100.00
2019-05-16T22:57:47.367Z,100.00
2019-05-16T23:00:26.647Z,100.00
2019-05-16T23:02:56.658Z,100.00
2019-05-16T23:05:27.318Z,100.00
2019-05-16T23:08:05.089Z,100.00
2019-05-16T23:10:27.845Z,100.00
2019-05-16T23:12:57.242Z,100.00
2019-05-16T23:15:26.569Z,100.00
2019-05-16T23:17:57.141Z,100.00
2019-05-16T23:20:27.556Z,100.00
2019-05-16T23:22:56.273Z,100.00
2019-05-16T23:25:24.842Z,100.00
2019-05-16T23:27:53.350Z,100.00
2019-05-16T23:30:21.968Z,100.00
2019-05-16T23:32:50.477Z,100.00
2019-05-16T23:35:19.026Z,100.00
2019-05-16T23:37:47.533Z,100.00
2019-05-16T23:40:16.474Z,100.00
2019-05-16T23:42:46.463Z,100.00
2019-05-16T23:45:17.125Z,100.00
2019-05-16T23:47:47.094Z,100.00
2019-05-16T23:50:17.130Z,100.00
2019-05-16T23:52:47.195Z,100.00
2019-05-16T23:55:17.427Z,100.00
2019-05-16T23:57:46.731Z,100.00
